Time;durP1;ratioP1;P1;durP2;ratioP2;P2;SDS_P1;SDS_P2;PMS_P1;PMS_P2;Temp;Humidity;BMP_temperature;BMP_pressure;BME280_temperature;BME280_humidity;BME280_pressure;Samples;Min_cycle;Max_cycle;Signal;HPM_P1;HPM_P2
2022/10/17 00:01:11;;;;;;;10.38;3.42;;;12.90;99.90;;;;;;5036347;28;20037;-66
2022/10/17 00:03:38;;;;;;;15.07;3.53;;;12.80;99.90;;;;;;5028820;28;20404;-63
2022/10/17 00:06:07;;;;;;;15.77;3.83;;;12.80;99.90;;;;;;5044781;28;20040;-64
2022/10/17 00:08:33;;;;;;;9.77;3.17;;;12.90;99.90;;;;;;5045235;28;20522;-64
2022/10/17 00:11:07;;;;;;;10.65;3.40;;;12.80;99.90;;;;;;5037740;28;20194;-63
2022/10/17 00:13:34;;;;;;;11.35;3.47;;;12.80;99.90;;;;;;5038322;28;20037;-64
2022/10/17 00:16:00;;;;;;;7.63;3.05;;;12.80;99.90;;;;;;5057352;28;20386;-64
2022/10/17 00:18:25;;;;;;;8.10;3.13;;;12.80;99.90;;;;;;5048411;28;20041;-63
2022/10/17 00:20:51;;;;;;;9.45;2.92;;;12.80;99.90;;;;;;5053057;28;20067;-66
2022/10/17 00:23:18;;;;;;;8.55;2.60;;;12.80;99.90;;;;;;5069480;28;20058;-63
2022/10/17 00:25:43;;;;;;;10.82;2.95;;;12.90;99.90;;;;;;5050692;28;20044;-65
2022/10/17 00:28:11;;;;;;;8.63;2.95;;;12.90;99.90;;;;;;5043300;28;20561;-66
2022/10/17 00:30:36;;;;;;;14.65;3.47;;;13.00;99.90;;;;;;5047866;28;20037;-64
2022/10/17 00:33:02;;;;;;;10.63;2.85;;;13.00;99.90;;;;;;5048172;28;20040;-64
2022/10/17 00:35:28;;;;;;;11.32;3.40;;;13.10;99.90;;;;;;5026563;28;20404;-63
2022/10/17 00:37:54;;;;;;;13.63;3.13;;;13.10;99.90;;;;;;5048490;28;20045;-66
2022/10/17 00:40:19;;;;;;;14.75;3.20;;;13.20;99.90;;;;;;5042579;28;20135;-63
2022/10/17 00:42:45;;;;;;;7.22;2.95;;;13.20;99.90;;;;;;5046432;28;20037;-64
2022/10/17 00:45:29;;;;;;;9.73;3.30;;;13.20;99.90;;;;;;5043631;28;20408;-64
2022/10/17 00:48:04;;;;;;;8.30;3.13;;;13.20;99.90;;;;;;5038832;28;20041;-64
2022/10/17 00:50:30;;;;;;;13.27;3.40;;;13.20;99.90;;;;;;5037381;28;20041;-64
2022/10/17 00:53:01;;;;;;;9.20;3.17;;;13.20;99.90;;;;;;5036451;28;20480;-64
2022/10/17 00:55:32;;;;;;;7.95;3.45;;;13.30;99.90;;;;;;5033025;28;20451;-64
2022/10/17 00:58:01;;;;;;;9.27;3.10;;;13.30;99.90;;;;;;5051296;28;20123;-64
2022/10/17 01:00:27;;;;;;;8.80;3.15;;;13.30;99.90;;;;;;5026640;28;20155;-65
2022/10/17 01:02:53;;;;;;;11.02;3.67;;;13.30;99.90;;;;;;5030739;28;20162;-65
2022/10/17 01:05:20;;;;;;;10.13;3.38;;;13.30;99.90;;;;;;5046340;28;20107;-66
2022/10/17 01:07:47;;;;;;;12.35;3.20;;;13.30;99.90;;;;;;5033248;28;20384;-65
2022/10/17 01:10:14;;;;;;;8.60;3.40;;;13.30;99.90;;;;;;5056838;28;20033;-63
2022/10/17 01:13:09;;;;;;;9.82;3.42;;;13.30;99.90;;;;;;5060843;28;20123;-63
2022/10/17 01:15:40;;;;;;;8.82;3.35;;;13.30;99.90;;;;;;5036607;28;20040;-63
2022/10/17 01:18:12;;;;;;;9.43;3.72;;;13.30;99.90;;;;;;5049122;28;20441;-64
2022/10/17 01:21:15;;;;;;;11.93;4.35;;;13.30;99.90;;;;;;5058744;28;20133;-63
2022/10/17 01:24:18;;;;;;;12.15;4.57;;;13.30;99.90;;;;;;5060544;28;20537;-64
2022/10/17 01:27:11;;;;;;;7.15;3.95;;;13.30;99.90;;;;;;5046146;28;20545;-62
2022/10/17 01:29:40;;;;;;;10.05;4.35;;;13.20;99.90;;;;;;5035188;28;20065;-65
2022/10/17 01:32:25;;;;;;;8.70;4.57;;;13.20;99.90;;;;;;5049209;28;20590;-63
2022/10/17 01:35:00;;;;;;;9.00;4.32;;;13.20;99.90;;;;;;5049857;28;20078;-66
2022/10/17 01:37:46;;;;;;;12.50;5.22;;;13.20;99.90;;;;;;5049538;28;20033;-63
2022/10/17 01:40:21;;;;;;;7.53;4.57;;;13.30;99.90;;;;;;5046005;28;20555;-65
2022/10/17 01:43:02;;;;;;;9.35;4.80;;;13.30;99.90;;;;;;5045083;28;20094;-64
2022/10/17 01:45:44;;;;;;;10.52;4.60;;;13.30;99.90;;;;;;5040357;28;20228;-66
2022/10/17 01:48:19;;;;;;;8.40;4.25;;;13.30;99.90;;;;;;5047856;28;20028;-64
2022/10/17 01:50:57;;;;;;;11.75;4.97;;;13.20;99.90;;;;;;5046294;28;20411;-64
2022/10/17 01:53:41;;;;;;;12.23;5.35;;;13.30;99.90;;;;;;5041623;28;20094;-64
2022/10/17 01:56:08;;;;;;;12.50;5.25;;;13.20;99.90;;;;;;5046557;28;20037;-66
2022/10/17 01:58:51;;;;;;;9.63;4.55;;;13.20;99.90;;;;;;5052426;28;20037;-63
2022/10/17 02:01:18;;;;;;;12.07;5.88;;;13.20;99.90;;;;;;5044624;28;21001;-65
2022/10/17 02:03:46;;;;;;;8.80;5.45;;;13.20;99.90;;;;;;5044134;28;20275;-66
2022/10/17 02:06:12;;;;;;;10.75;4.85;;;13.20;99.90;;;;;;5048110;28;20435;-64
2022/10/17 02:08:47;;;;;;;10.27;5.88;;;13.20;99.90;;;;;;5046013;28;20037;-66
2022/10/17 02:11:16;;;;;;;7.10;5.35;;;13.20;99.90;;;;;;5053320;28;20090;-64
2022/10/17 02:14:04;;;;;;;8.82;5.30;;;13.20;99.90;;;;;;5052773;28;20048;-65
2022/10/17 02:17:13;;;;;;;13.48;5.78;;;13.20;99.90;;;;;;5051421;28;20126;-66
2022/10/17 02:20:12;;;;;;;11.98;5.95;;;13.20;99.90;;;;;;5034090;28;20484;-65
2022/10/17 02:23:12;;;;;;;11.75;5.07;;;13.20;99.90;;;;;;5048150;28;20094;-65
2022/10/17 02:25:53;;;;;;;11.07;5.10;;;13.10;99.90;;;;;;5052118;28;20172;-62
2022/10/17 02:28:38;;;;;;;10.25;5.63;;;13.10;99.90;;;;;;5033980;28;20136;-66
2022/10/17 02:31:15;;;;;;;7.90;4.70;;;13.10;99.90;;;;;;5037247;28;20044;-62
2022/10/17 02:33:47;;;;;;;11.63;5.60;;;13.10;99.90;;;;;;5042944;28;20626;-65
2022/10/17 02:36:19;;;;;;;11.43;6.03;;;13.10;99.90;;;;;;5047870;28;20492;-66
2022/10/17 02:38:46;;;;;;;14.25;6.07;;;13.10;99.90;;;;;;5048560;28;20068;-64
2022/10/17 02:41:16;;;;;;;9.25;5.18;;;13.10;99.90;;;;;;5050433;28;20044;-66
2022/10/17 02:43:44;;;;;;;12.18;5.97;;;13.10;99.90;;;;;;5050819;28;20048;-64
2022/10/17 02:46:19;;;;;;;11.55;5.97;;;13.10;99.90;;;;;;5040198;28;20040;-66
2022/10/17 02:48:51;;;;;;;14.63;6.13;;;13.10;99.90;;;;;;5040892;28;20139;-63
2022/10/17 02:51:26;;;;;;;9.50;6.55;;;13.10;99.90;;;;;;5048660;28;20042;-64
2022/10/17 02:53:57;;;;;;;9.48;6.40;;;13.10;99.90;;;;;;5034137;28;20425;-66
2022/10/17 02:56:25;;;;;;;11.93;6.55;;;13.10;99.90;;;;;;5045853;28;20041;-65
2022/10/17 02:58:56;;;;;;;10.20;6.97;;;13.10;99.90;;;;;;5033367;28;20044;-64
2022/10/17 03:01:22;;;;;;;11.13;6.57;;;13.10;99.90;;;;;;5040252;28;20718;-64
2022/10/17 03:03:47;;;;;;;14.45;7.78;;;13.10;99.90;;;;;;5038547;28;20045;-66
2022/10/17 03:06:13;;;;;;;12.73;7.93;;;13.10;99.90;;;;;;5039093;28;20037;-66
2022/10/17 03:08:39;;;;;;;12.23;7.45;;;13.10;99.90;;;;;;5040175;28;20527;-65
2022/10/17 03:11:05;;;;;;;16.17;9.90;;;13.20;99.90;;;;;;5037616;28;20051;-65
2022/10/17 03:13:30;;;;;;;12.77;8.13;;;13.20;99.90;;;;;;5038476;28;20041;-63
2022/10/17 03:15:56;;;;;;;14.30;9.15;;;13.20;99.90;;;;;;5038482;28;20048;-65
2022/10/17 03:18:22;;;;;;;11.15;8.50;;;13.30;99.90;;;;;;5023871;28;20076;-65
2022/10/17 03:20:48;;;;;;;12.35;9.63;;;13.30;99.90;;;;;;5033045;28;20041;-64
2022/10/17 03:23:14;;;;;;;13.25;9.57;;;13.40;99.90;;;;;;5011950;28;20049;-63
2022/10/17 03:25:40;;;;;;;10.80;8.70;;;13.40;99.90;;;;;;5023324;28;20139;-62
2022/10/17 03:28:05;;;;;;;12.32;9.27;;;13.40;99.90;;;;;;5031799;28;20213;-63
2022/10/17 03:30:32;;;;;;;11.98;8.50;;;13.40;99.90;;;;;;5023060;28;20049;-66
2022/10/17 03:32:58;;;;;;;12.68;8.88;;;13.40;99.90;;;;;;5039380;28;20713;-64
2022/10/17 03:35:25;;;;;;;17.77;9.15;;;13.40;99.90;;;;;;5045988;28;20397;-66
2022/10/17 03:37:50;;;;;;;15.07;9.98;;;13.40;99.90;;;;;;5050909;28;20629;-66
2022/10/17 03:40:16;;;;;;;17.60;10.50;;;13.40;99.90;;;;;;5047486;28;20029;-63
2022/10/17 03:42:42;;;;;;;13.75;9.60;;;13.40;99.90;;;;;;5044058;28;20044;-66
2022/10/17 03:45:08;;;;;;;15.93;10.93;;;13.50;99.90;;;;;;5032614;28;20330;-65
2022/10/17 03:47:34;;;;;;;12.65;10.88;;;13.40;99.90;;;;;;5033377;28;20045;-65
2022/10/17 03:50:00;;;;;;;16.95;11.20;;;13.40;99.90;;;;;;5037846;28;22023;-63
2022/10/17 03:52:25;;;;;;;16.48;10.15;;;13.40;99.90;;;;;;5046874;28;20507;-64
2022/10/17 03:54:51;;;;;;;16.35;10.00;;;13.40;99.90;;;;;;5058498;28;20079;-64
2022/10/17 03:57:18;;;;;;;13.85;11.15;;;13.40;99.90;;;;;;5040614;28;20076;-64
2022/10/17 03:59:44;;;;;;;20.48;11.68;;;13.40;99.90;;;;;;5044627;28;20113;-63
2022/10/17 04:02:09;;;;;;;13.82;11.05;;;13.40;99.90;;;;;;5037335;28;20040;-63
2022/10/17 04:04:35;;;;;;;13.90;11.07;;;13.40;99.90;;;;;;5041406;28;20039;-65
2022/10/17 04:07:01;;;;;;;13.70;11.25;;;13.40;99.90;;;;;;5036576;28;20045;-66
2022/10/17 04:09:27;;;;;;;14.38;12.02;;;13.50;99.90;;;;;;5043244;28;20119;-63
2022/10/17 04:11:52;;;;;;;17.55;12.93;;;13.50;99.90;;;;;;5035704;28;20472;-63
2022/10/17 04:14:18;;;;;;;13.48;11.93;;;13.50;99.90;;;;;;5041950;28;20773;-63
2022/10/17 04:16:44;;;;;;;17.67;13.48;;;13.50;99.90;;;;;;5052579;28;20048;-65
2022/10/17 04:19:12;;;;;;;15.98;12.90;;;13.50;99.90;;;;;;5054078;28;20426;-64
2022/10/17 04:21:37;;;;;;;16.67;13.90;;;13.50;99.90;;;;;;5055228;28;20515;-63
2022/10/17 04:24:03;;;;;;;15.95;12.55;;;13.50;99.90;;;;;;5062645;28;20053;-64
2022/10/17 04:26:29;;;;;;;15.32;13.73;;;13.50;99.90;;;;;;5064749;28;20044;-64
2022/10/17 04:28:55;;;;;;;18.63;13.70;;;13.50;99.90;;;;;;5045923;28;20040;-64
2022/10/17 04:31:20;;;;;;;23.95;13.98;;;13.60;99.90;;;;;;5055481;28;20209;-66
2022/10/17 04:33:48;;;;;;;19.30;14.18;;;13.60;99.90;;;;;;5045905;28;20314;-64
2022/10/17 04:36:16;;;;;;;17.17;13.45;;;13.60;99.90;;;;;;5051231;28;20036;-63
2022/10/17 04:38:42;;;;;;;16.25;13.57;;;13.60;99.90;;;;;;5056339;28;20037;-67
2022/10/17 04:41:14;;;;;;;17.08;14.52;;;13.60;99.90;;;;;;5050812;28;20038;-63
2022/10/17 04:43:40;;;;;;;20.10;15.05;;;13.70;99.90;;;;;;5032743;28;20080;-66
2022/10/17 04:46:08;;;;;;;24.48;15.98;;;13.70;99.90;;;;;;5045940;28;20064;-66
2022/10/17 04:48:34;;;;;;;21.55;15.80;;;13.80;99.90;;;;;;5044793;28;20299;-66
2022/10/17 04:51:03;;;;;;;18.45;14.43;;;13.80;99.90;;;;;;5042160;28;20326;-65
2022/10/17 04:53:32;;;;;;;18.20;13.95;;;13.90;99.90;;;;;;5058776;28;20051;-64
2022/10/17 04:55:58;;;;;;;23.77;16.40;;;13.90;99.90;;;;;;5050622;28;20102;-64
2022/10/17 04:58:24;;;;;;;20.08;16.05;;;13.90;99.90;;;;;;5030761;28;20186;-63
2022/10/17 05:00:49;;;;;;;21.67;16.92;;;14.00;99.90;;;;;;5040764;28;20488;-65
2022/10/17 05:03:15;;;;;;;20.20;16.05;;;14.00;99.90;;;;;;5040819;28;20044;-66
2022/10/17 05:05:42;;;;;;;20.50;17.02;;;14.10;99.90;;;;;;5048977;28;20093;-66
2022/10/17 05:08:09;;;;;;;22.25;16.17;;;14.10;99.90;;;;;;5043989;28;20044;-63
2022/10/17 05:10:43;;;;;;;20.30;16.63;;;14.10;99.90;;;;;;5042529;28;20036;-64
2022/10/17 05:13:09;;;;;;;19.80;15.50;;;14.20;99.90;;;;;;5043817;22;20036;-62
2022/10/17 05:15:36;;;;;;;24.35;16.17;;;14.20;99.90;;;;;;5034847;28;20653;-63
2022/10/17 05:18:03;;;;;;;18.55;16.38;;;14.20;99.90;;;;;;5020727;28;20079;-63
2022/10/17 05:20:29;;;;;;;24.15;16.77;;;14.20;99.90;;;;;;5028724;28;20052;-63
2022/10/17 05:22:54;;;;;;;19.17;16.00;;;14.30;99.90;;;;;;5044405;28;20046;-62
2022/10/17 05:25:20;;;;;;;19.40;16.13;;;14.30;99.90;;;;;;5038692;28;20076;-63
2022/10/17 05:27:46;;;;;;;23.75;17.08;;;14.30;99.90;;;;;;5051614;28;20055;-63
2022/10/17 05:30:12;;;;;;;19.30;16.50;;;14.30;99.90;;;;;;5056416;28;20391;-62
2022/10/17 05:32:38;;;;;;;17.42;15.05;;;14.30;99.90;;;;;;5059035;28;20037;-62
2022/10/17 05:35:04;;;;;;;17.77;15.00;;;14.30;99.90;;;;;;5047370;28;20070;-63
2022/10/17 05:37:30;;;;;;;29.77;16.23;;;14.30;99.90;;;;;;5004856;28;20052;-63
2022/10/17 05:39:56;;;;;;;22.48;15.98;;;14.30;99.90;;;;;;5042600;28;20044;-62
2022/10/17 05:42:22;;;;;;;21.10;16.13;;;14.30;99.90;;;;;;5049296;28;20044;-62
2022/10/17 05:44:48;;;;;;;19.38;16.63;;;14.30;99.90;;;;;;5042809;28;20575;-62
2022/10/17 05:47:14;;;;;;;20.70;16.52;;;14.30;99.90;;;;;;5043606;28;20036;-63
2022/10/17 05:49:39;;;;;;;21.92;16.02;;;14.30;99.90;;;;;;5045969;28;20047;-62
2022/10/17 05:52:05;;;;;;;21.60;16.33;;;14.30;99.90;;;;;;5044717;28;20044;-62
2022/10/17 05:54:31;;;;;;;21.95;16.10;;;14.40;99.90;;;;;;5053254;28;21147;-62
2022/10/17 05:56:57;;;;;;;24.10;16.48;;;14.40;99.90;;;;;;5055927;28;20113;-62
2022/10/17 05:59:24;;;;;;;20.83;16.52;;;14.40;99.90;;;;;;5060497;28;20041;-63
2022/10/17 06:01:50;;;;;;;23.63;15.70;;;14.40;99.90;;;;;;5042113;28;20047;-62
2022/10/17 06:04:16;;;;;;;20.25;15.10;;;14.40;99.90;;;;;;5059239;28;20047;-62
2022/10/17 06:06:42;;;;;;;21.40;16.83;;;14.50;99.90;;;;;;5058153;28;20076;-63
2022/10/17 06:09:08;;;;;;;18.38;15.75;;;14.50;99.90;;;;;;5044662;28;20033;-63
2022/10/17 06:11:34;;;;;;;22.05;15.68;;;14.50;99.90;;;;;;5050014;28;20029;-62
2022/10/17 06:14:00;;;;;;;21.30;16.00;;;14.50;99.90;;;;;;5053684;28;20048;-62
2022/10/17 06:16:26;;;;;;;18.33;16.10;;;14.50;99.90;;;;;;5048964;28;20423;-63
2022/10/17 06:18:51;;;;;;;21.30;16.80;;;14.50;99.90;;;;;;5065842;28;20066;-63
2022/10/17 06:21:23;;;;;;;21.23;15.48;;;14.60;99.90;;;;;;5060075;28;20041;-63
2022/10/17 06:23:49;;;;;;;21.02;15.32;;;14.50;99.90;;;;;;5066071;28;20089;-63
2022/10/17 06:26:15;;;;;;;30.33;15.65;;;14.60;99.90;;;;;;5053102;28;20381;-62
2022/10/17 06:28:41;;;;;;;19.48;14.40;;;14.60;99.90;;;;;;5049709;28;20104;-63
2022/10/17 06:31:11;;;;;;;20.23;14.75;;;14.60;99.90;;;;;;5043960;28;20554;-62
2022/10/17 06:33:37;;;;;;;18.45;15.23;;;14.70;99.90;;;;;;5055131;28;20483;-62
2022/10/17 06:36:05;;;;;;;19.15;14.85;;;14.70;99.90;;;;;;5043591;28;20040;-62
2022/10/17 06:38:32;;;;;;;18.63;12.60;;;14.70;99.90;;;;;;5047876;28;20144;-63
2022/10/17 06:41:12;;;;;;;20.52;14.57;;;14.80;99.90;;;;;;5043584;28;20044;-62
2022/10/17 06:43:39;;;;;;;18.20;14.15;;;14.80;99.90;;;;;;5050692;28;20041;-62
2022/10/17 06:46:05;;;;;;;20.50;14.07;;;14.90;99.90;;;;;;5042484;28;20033;-62
2022/10/17 06:48:31;;;;;;;16.77;14.27;;;14.90;99.90;;;;;;5046642;28;20515;-63
2022/10/17 06:51:01;;;;;;;18.15;15.10;;;14.90;99.90;;;;;;5046745;28;20398;-62
2022/10/17 06:53:28;;;;;;;21.63;14.23;;;14.90;99.90;;;;;;5053358;28;20139;-62
2022/10/17 06:56:00;;;;;;;17.83;13.40;;;15.00;99.90;;;;;;5058669;28;20049;-63
2022/10/17 06:58:27;;;;;;;23.20;13.30;;;15.00;99.90;;;;;;5050953;28;20442;-62
2022/10/17 07:00:57;;;;;;;21.13;12.82;;;15.10;99.90;;;;;;5051644;28;20083;-62
2022/10/17 07:03:22;;;;;;;20.05;13.27;;;15.10;99.90;;;;;;5054698;28;20036;-64
2022/10/17 07:05:52;;;;;;;17.35;13.13;;;15.20;99.90;;;;;;5070069;28;20106;-63
2022/10/17 07:08:18;;;;;;;21.58;13.55;;;15.20;99.90;;;;;;5066442;28;20028;-62
2022/10/17 07:10:43;;;;;;;28.65;13.45;;;15.20;99.90;;;;;;5064715;28;20316;-62
2022/10/17 07:13:09;;;;;;;20.80;12.20;;;15.40;99.90;;;;;;5059142;28;20037;-63
2022/10/17 07:15:36;;;;;;;15.40;11.85;;;15.30;99.90;;;;;;5066407;28;20028;-63
2022/10/17 07:18:02;;;;;;;16.17;11.68;;;15.40;99.90;;;;;;5057625;28;20036;-62
2022/10/17 07:20:28;;;;;;;14.40;11.77;;;15.40;99.90;;;;;;5055036;28;20041;-64
2022/10/17 07:22:53;;;;;;;16.08;11.68;;;15.50;99.90;;;;;;5049881;28;20403;-63
2022/10/17 07:25:19;;;;;;;17.30;11.75;;;15.50;99.90;;;;;;5062621;28;20060;-63
2022/10/17 07:27:45;;;;;;;16.15;11.73;;;15.50;99.90;;;;;;5055325;28;20083;-62
2022/10/17 07:30:11;;;;;;;16.42;11.60;;;15.60;99.90;;;;;;5058411;28;20040;-63
2022/10/17 07:32:37;;;;;;;15.15;11.43;;;15.60;99.90;;;;;;5059154;28;20119;-63
2022/10/17 07:35:03;;;;;;;14.40;11.32;;;15.70;99.90;;;;;;5060369;28;20115;-64
2022/10/17 07:37:29;;;;;;;15.18;11.40;;;15.70;99.90;;;;;;5048773;28;20083;-63
2022/10/17 07:39:55;;;;;;;15.07;11.88;;;15.70;99.90;;;;;;5060902;28;20043;-62
2022/10/17 07:42:21;;;;;;;17.30;12.40;;;15.70;99.90;;;;;;5060037;28;20048;-63
2022/10/17 07:44:47;;;;;;;13.75;11.30;;;15.80;99.90;;;;;;5056874;28;20080;-63
2022/10/17 07:47:13;;;;;;;17.52;11.70;;;15.80;99.90;;;;;;5059165;28;20081;-62
2022/10/17 07:49:41;;;;;;;14.63;11.27;;;15.90;99.90;;;;;;5060110;28;20041;-63
2022/10/17 07:52:10;;;;;;;13.35;11.00;;;15.90;99.90;;;;;;5070319;28;20090;-62
2022/10/17 07:54:36;;;;;;;13.93;10.20;;;15.90;99.90;;;;;;5065161;28;20080;-64
2022/10/17 07:57:02;;;;;;;14.38;10.80;;;16.00;99.90;;;;;;5075661;28;20474;-63
2022/10/17 07:59:28;;;;;;;13.45;10.65;;;16.00;99.90;;;;;;5060669;28;20045;-64
2022/10/17 08:01:58;;;;;;;13.30;11.20;;;16.00;99.90;;;;;;5069260;28;20135;-62
2022/10/17 08:04:24;;;;;;;15.73;10.63;;;16.10;99.90;;;;;;5060695;28;20048;-63
2022/10/17 08:06:50;;;;;;;14.77;10.27;;;16.10;99.90;;;;;;5080720;28;20438;-63
2022/10/17 08:09:16;;;;;;;13.18;9.32;;;16.10;99.90;;;;;;5051923;28;20040;-64
2022/10/17 08:11:44;;;;;;;14.90;10.13;;;16.20;99.90;;;;;;5064845;28;20094;-63
2022/10/17 08:14:11;;;;;;;15.15;10.80;;;16.20;99.90;;;;;;5064055;28;20036;-63
2022/10/17 08:16:37;;;;;;;11.45;10.25;;;16.20;99.90;;;;;;5060196;28;20490;-63
2022/10/17 08:19:03;;;;;;;12.18;10.38;;;16.30;99.90;;;;;;5058296;28;20068;-62
2022/10/17 08:21:29;;;;;;;10.77;9.68;;;16.30;99.90;;;;;;5073066;28;20119;-63
2022/10/17 08:23:55;;;;;;;13.25;10.85;;;16.30;99.90;;;;;;5066979;28;20033;-63
2022/10/17 08:26:21;;;;;;;14.82;10.48;;;16.30;99.90;;;;;;5062837;28;20052;-64
2022/10/17 08:28:48;;;;;;;11.23;9.52;;;16.30;99.90;;;;;;5058050;28;20048;-60
2022/10/17 08:31:18;;;;;;;13.43;10.70;;;16.30;99.90;;;;;;5055181;28;20045;-63
2022/10/17 08:33:45;;;;;;;12.27;9.68;;;16.30;99.90;;;;;;5027325;28;20056;-63
2022/10/17 08:36:17;;;;;;;12.50;10.27;;;16.30;99.90;;;;;;5058463;28;20036;-63
2022/10/17 08:38:44;;;;;;;14.40;10.32;;;16.40;99.90;;;;;;5056462;28;20723;-65
2022/10/17 08:41:49;;;;;;;14.60;10.52;;;16.40;99.90;;;;;;5027792;28;20073;-63
2022/10/17 08:44:55;;;;;;;14.02;10.27;;;16.50;99.90;;;;;;5048517;28;20040;-63
2022/10/17 08:47:41;;;;;;;12.70;9.65;;;16.40;99.90;;;;;;5042584;28;20128;-64
2022/10/17 08:50:20;;;;;;;14.40;11.40;;;16.40;99.90;;;;;;5046610;28;20110;-64
2022/10/17 08:52:52;;;;;;;16.98;10.90;;;16.40;99.90;;;;;;5056509;28;20045;-63
2022/10/17 08:55:37;;;;;;;14.40;10.60;;;16.50;99.90;;;;;;5050146;28;20120;-63
2022/10/17 08:58:19;;;;;;;11.93;10.43;;;16.50;99.90;;;;;;5045544;28;20079;-63
2022/10/17 09:01:00;;;;;;;14.93;10.25;;;16.50;99.90;;;;;;5042826;28;20040;-64
2022/10/17 09:04:08;;;;;;;14.32;10.70;;;16.50;99.90;;;;;;5052499;28;20051;-65
2022/10/17 09:07:11;;;;;;;11.70;10.32;;;16.50;99.90;;;;;;5048339;28;20040;-64
2022/10/17 09:09:37;;;;;;;15.15;10.32;;;16.50;99.90;;;;;;4995280;28;20072;-64
2022/10/17 09:12:56;;;;;;;13.63;9.98;;;16.50;99.90;;;;;;5033668;28;20523;-63
2022/10/17 09:15:33;;;;;;;12.02;10.40;;;16.50;99.90;;;;;;5021311;28;20049;-64
2022/10/17 09:18:22;;;;;;;14.05;10.40;;;16.50;99.90;;;;;;5060954;28;20130;-64
2022/10/17 09:20:54;;;;;;;12.05;10.68;;;16.50;99.90;;;;;;5054878;28;20781;-64
2022/10/17 09:23:27;;;;;;;13.60;10.25;;;16.60;99.90;;;;;;5043437;28;20081;-64
2022/10/17 09:25:59;;;;;;;18.65;11.55;;;16.60;99.90;;;;;;5052216;28;20037;-64
2022/10/17 09:28:27;;;;;;;14.68;10.15;;;16.60;99.90;;;;;;5053494;28;20094;-64
2022/10/17 09:31:00;;;;;;;14.32;10.43;;;16.60;99.90;;;;;;5063489;28;20041;-63
2022/10/17 09:33:29;;;;;;;14.52;10.95;;;16.60;99.90;;;;;;5058682;28;20404;-64
2022/10/17 09:35:58;;;;;;;11.45;9.88;;;16.60;99.90;;;;;;5051665;28;20040;-64
2022/10/17 09:38:29;;;;;;;14.80;10.48;;;16.60;99.90;;;;;;5068425;28;20116;-64
2022/10/17 09:40:59;;;;;;;13.55;10.13;;;16.60;99.90;;;;;;5048088;28;20048;-64
2022/10/17 09:43:25;;;;;;;13.13;10.93;;;16.60;99.90;;;;;;5044274;28;20059;-63
2022/10/17 09:46:07;;;;;;;16.60;11.25;;;16.60;99.90;;;;;;5047133;28;20060;-64
2022/10/17 09:48:50;;;;;;;18.33;11.75;;;16.60;99.90;;;;;;5043065;28;20045;-64
2022/10/17 09:51:16;;;;;;;13.57;10.25;;;16.60;99.90;;;;;;5046641;28;20049;-64
2022/10/17 09:53:48;;;;;;;14.48;10.68;;;16.50;99.90;;;;;;5045481;28;20051;-64
2022/10/17 09:56:16;;;;;;;14.55;10.98;;;16.50;99.90;;;;;;5045883;28;20518;-64
2022/10/17 09:58:52;;;;;;;14.00;10.48;;;16.50;99.90;;;;;;5043791;28;20032;-64
2022/10/17 10:01:27;;;;;;;14.35;10.93;;;16.50;99.90;;;;;;5036952;28;20033;-64
2022/10/17 10:04:11;;;;;;;16.30;12.27;;;16.50;99.90;;;;;;5046038;28;20127;-64
2022/10/17 10:06:38;;;;;;;19.98;12.35;;;16.50;99.90;;;;;;5044239;28;20041;-64
2022/10/17 10:09:06;;;;;;;16.02;11.63;;;16.50;99.90;;;;;;5051944;28;20044;-64
2022/10/17 10:11:48;;;;;;;15.05;11.50;;;16.50;99.90;;;;;;5069031;28;20063;-64
2022/10/17 10:14:38;;;;;;;15.05;10.95;;;16.50;99.90;;;;;;5056898;28;20029;-65
2022/10/17 10:17:24;;;;;;;16.35;11.23;;;16.50;99.90;;;;;;5047568;28;20044;-64
2022/10/17 10:19:51;;;;;;;13.80;11.27;;;16.50;99.90;;;;;;5052830;28;20051;-63
2022/10/17 10:22:19;;;;;;;16.52;12.63;;;16.50;99.90;;;;;;5045791;28;20071;-64
2022/10/17 10:24:45;;;;;;;14.35;12.27;;;16.50;99.90;;;;;;5057035;28;20482;-64
2022/10/17 10:27:16;;;;;;;14.52;11.50;;;16.50;99.90;;;;;;5052979;28;20041;-64
2022/10/17 10:29:49;;;;;;;16.30;11.70;;;16.50;99.90;;;;;;5049214;28;20480;-64
2022/10/17 10:32:22;;;;;;;16.70;11.80;;;16.50;99.90;;;;;;5057533;28;20032;-64
2022/10/17 10:35:02;;;;;;;15.32;11.38;;;16.50;99.90;;;;;;5053492;28;20136;-64
2022/10/17 10:37:42;;;;;;;16.30;11.52;;;16.50;99.90;;;;;;5064941;28;20044;-63
2022/10/17 10:40:29;;;;;;;16.05;11.40;;;16.50;99.90;;;;;;5037937;28;20044;-64
2022/10/17 10:42:57;;;;;;;14.85;11.73;;;16.50;99.90;;;;;;5048800;28;20048;-62
2022/10/17 10:45:26;;;;;;;17.25;12.70;;;16.60;99.90;;;;;;5055673;28;20037;-63
2022/10/17 10:48:00;;;;;;;15.23;11.57;;;16.50;99.90;;;;;;5057106;28;20044;-65
2022/10/17 10:50:43;;;;;;;17.15;12.63;;;16.60;99.90;;;;;;5061888;28;20041;-65
2022/10/17 10:53:32;;;;;;;20.85;12.35;;;16.60;99.90;;;;;;5054450;28;20043;-64
2022/10/17 10:56:11;;;;;;;16.40;12.05;;;16.60;99.90;;;;;;5057984;28;20047;-64
2022/10/17 10:58:48;;;;;;;19.63;12.30;;;16.60;99.90;;;;;;5059161;28;20517;-63
2022/10/17 11:01:38;;;;;;;16.40;12.65;;;16.60;99.90;;;;;;5048849;28;20044;-64
2022/10/17 11:04:16;;;;;;;16.30;12.23;;;16.60;99.90;;;;;;5057080;28;20445;-63
2022/10/17 11:06:44;;;;;;;17.00;12.45;;;16.60;99.90;;;;;;5052092;28;20049;-63
2022/10/17 11:09:24;;;;;;;15.77;12.27;;;16.70;99.90;;;;;;5055296;28;20049;-63
2022/10/17 11:17:28;;;;;;;15.45;11.93;;;16.60;99.90;;;;;;5030327;28;20045;-63
2022/10/17 11:20:27;;;;;;;14.52;11.23;;;16.60;99.90;;;;;;5041417;28;20434;-63
2022/10/17 11:23:11;;;;;;;13.00;10.63;;;16.70;99.90;;;;;;5021599;28;20041;-63
2022/10/17 11:25:38;;;;;;;15.93;10.63;;;16.70;99.90;;;;;;5004131;28;20099;-62
2022/10/17 11:28:13;;;;;;;14.38;9.98;;;16.70;99.90;;;;;;4981187;28;20053;-63
2022/10/17 11:31:03;;;;;;;13.15;10.27;;;16.80;99.90;;;;;;5017960;28;20335;-63
2022/10/17 11:33:51;;;;;;;12.35;8.90;;;16.80;99.90;;;;;;4986241;28;20515;-63
2022/10/17 11:36:20;;;;;;;13.07;9.77;;;16.80;99.90;;;;;;5017753;28;20041;-63
2022/10/17 11:39:00;;;;;;;12.07;9.68;;;16.70;99.90;;;;;;5000223;28;20050;-63
2022/10/17 11:41:32;;;;;;;11.20;9.10;;;16.70;99.90;;;;;;5025933;28;20045;-63
2022/10/17 11:44:28;;;;;;;11.63;9.25;;;16.70;99.90;;;;;;5006060;28;20080;-63
2022/10/17 11:46:59;;;;;;;14.05;9.23;;;16.60;99.90;;;;;;5026397;28;20516;-63
2022/10/17 11:49:33;;;;;;;12.23;9.35;;;16.60;99.90;;;;;;5020040;28;20452;-63
2022/10/17 11:52:36;;;;;;;10.80;8.48;;;16.60;99.90;;;;;;5002856;28;20038;-63
2022/10/17 11:55:10;;;;;;;12.10;8.70;;;16.60;99.90;;;;;;5004148;28;20087;-62
2022/10/17 11:57:44;;;;;;;12.30;8.65;;;16.60;99.90;;;;;;5022953;28;20065;-63
2022/10/17 12:00:28;;;;;;;12.75;8.93;;;16.70;99.90;;;;;;5007004;28;20038;-62
2022/10/17 12:03:18;;;;;;;13.05;9.75;;;16.70;99.90;;;;;;5024024;28;20076;-62
2022/10/17 12:06:19;;;;;;;13.90;8.68;;;16.80;99.90;;;;;;5010180;28;20520;-63
2022/10/17 12:09:03;;;;;;;12.02;8.77;;;16.90;99.90;;;;;;4999236;28;20095;-62
2022/10/17 12:11:49;;;;;;;13.20;9.55;;;16.90;99.90;;;;;;5027041;28;20041;-62
2022/10/17 12:14:35;;;;;;;12.30;8.88;;;16.90;99.90;;;;;;5024332;28;20353;-62
2022/10/17 12:17:02;;;;;;;14.48;8.50;;;16.90;99.90;;;;;;5012155;28;20045;-63
2022/10/17 12:19:31;;;;;;;14.50;8.77;;;16.90;99.90;;;;;;4997126;28;20081;-63
2022/10/17 12:22:21;;;;;;;10.52;7.97;;;16.90;99.90;;;;;;5009017;28;20120;-62
2022/10/17 12:24:59;;;;;;;10.95;7.82;;;16.80;99.90;;;;;;5018343;28;20492;-63
2022/10/17 12:27:33;;;;;;;10.50;7.88;;;16.80;99.90;;;;;;5009650;28;20136;-63
2022/10/17 12:30:11;;;;;;;10.35;7.60;;;16.80;99.90;;;;;;5017825;28;20160;-63
2022/10/17 12:32:37;;;;;;;11.75;7.28;;;16.70;99.90;;;;;;4990869;28;20049;-63
2022/10/17 12:35:03;;;;;;;10.50;7.35;;;16.70;99.90;;;;;;4994041;28;20076;-63
2022/10/17 12:37:44;;;;;;;11.88;7.47;;;16.70;99.90;;;;;;5012501;28;20459;-64
2022/10/17 12:40:35;;;;;;;11.85;7.18;;;16.60;99.90;;;;;;5015259;28;20091;-63
2022/10/17 12:43:13;;;;;;;11.63;6.88;;;16.70;99.90;;;;;;5015872;28;20057;-62
2022/10/17 12:45:53;;;;;;;9.70;6.97;;;16.60;99.90;;;;;;5023347;28;20100;-63
2022/10/17 12:48:36;;;;;;;13.27;7.47;;;16.60;99.90;;;;;;4981825;28;23057;-63
2022/10/17 12:51:11;;;;;;;13.38;7.53;;;16.60;99.90;;;;;;4999302;28;20523;-63
2022/10/17 12:53:59;;;;;;;8.90;6.82;;;16.50;99.90;;;;;;5013392;28;20631;-63
2022/10/17 12:56:46;;;;;;;13.38;7.47;;;16.60;99.90;;;;;;4993989;28;20061;-63
2022/10/17 12:59:20;;;;;;;12.40;6.97;;;16.50;99.90;;;;;;5019957;28;20120;-63
2022/10/17 13:01:49;;;;;;;12.30;6.32;;;16.60;99.90;;;;;;5006537;28;20141;-63
2022/10/17 13:04:16;;;;;;;8.88;6.85;;;16.60;99.90;;;;;;4987489;28;20056;-63